Time;durP1;ratioP1;P1;durP2;ratioP2;P2;SDS_P1;SDS_P2;PMS_P1;PMS_P2;Temp;Humidity;BMP_temperature;BMP_pressure;BME280_temperature;BME280_humidity;BME280_pressure;Samples;Min_cycle;Max_cycle;Signal;HPM_P1;HPM_P2
2022/06/15 00:00:07;;;;;;;6.47;2.47;;;15.60;99.90;;;;;;5074268;28;20029;-60
2022/06/15 00:02:32;;;;;;;7.75;2.50;;;15.80;99.90;;;;;;5084205;28;20108;-62
2022/06/15 00:04:58;;;;;;;6.07;2.53;;;15.60;99.90;;;;;;5080426;28;20031;-63
2022/06/15 00:07:23;;;;;;;6.93;2.40;;;15.50;99.90;;;;;;5076171;28;20142;-62
2022/06/15 00:09:49;;;;;;;7.13;2.53;;;15.50;99.90;;;;;;5080901;28;20058;-64
2022/06/15 00:12:15;;;;;;;8.05;2.67;;;15.30;99.90;;;;;;5084950;28;20467;-63
2022/06/15 00:14:41;;;;;;;6.05;2.45;;;15.40;99.90;;;;;;5085396;28;20168;-64
2022/06/15 00:17:06;;;;;;;11.10;2.80;;;15.60;99.90;;;;;;5089656;28;20113;-65
2022/06/15 00:19:32;;;;;;;9.50;2.47;;;15.60;99.90;;;;;;5093802;28;20510;-63
2022/06/15 00:21:57;;;;;;;7.45;2.60;;;15.50;99.90;;;;;;5086030;28;20838;-64
2022/06/15 00:24:23;;;;;;;8.95;2.55;;;15.50;99.90;;;;;;5085326;28;20024;-64
2022/06/15 00:26:49;;;;;;;5.63;2.25;;;15.50;99.90;;;;;;5079300;28;20036;-62
2022/06/15 00:29:15;;;;;;;7.75;2.50;;;15.50;99.90;;;;;;5072250;28;20023;-64
2022/06/15 00:31:40;;;;;;;7.85;2.33;;;15.50;99.90;;;;;;5085376;28;20247;-64
2022/06/15 00:34:06;;;;;;;7.95;2.55;;;15.40;99.90;;;;;;5091505;28;20165;-62
2022/06/15 00:36:32;;;;;;;9.23;2.55;;;15.50;99.90;;;;;;5077460;28;20530;-63
2022/06/15 00:38:59;;;;;;;11.07;2.45;;;15.40;99.90;;;;;;5094240;28;20030;-62
2022/06/15 00:41:32;;;;;;;10.55;2.95;;;15.50;99.90;;;;;;5092340;27;20110;-63
2022/06/15 00:44:00;;;;;;;12.00;2.90;;;15.60;99.90;;;;;;5087574;28;20497;-62
2022/06/15 00:46:34;;;;;;;7.22;2.20;;;15.50;99.90;;;;;;5082084;28;20055;-62
2022/06/15 00:49:05;;;;;;;;;;;15.50;99.90;;;;;;5078707;28;20116;-64
2022/06/15 00:51:31;;;;;;;7.15;2.50;;;15.60;99.90;;;;;;5083079;28;19986;-64
2022/06/15 00:53:58;;;;;;;7.65;2.65;;;15.60;99.90;;;;;;5084100;28;20119;-61
2022/06/15 00:56:26;;;;;;;10.10;2.75;;;15.50;99.90;;;;;;5077911;28;20517;-61
2022/06/15 00:58:55;;;;;;;9.20;2.35;;;15.40;99.90;;;;;;5079350;28;20529;-64
2022/06/15 01:01:21;;;;;;;6.80;2.60;;;15.40;99.90;;;;;;5080646;28;20032;-64
2022/06/15 01:03:49;;;;;;;10.02;2.88;;;15.50;99.90;;;;;;5080186;28;20368;-64
2022/06/15 01:06:26;;;;;;;9.32;2.40;;;15.50;99.90;;;;;;5081103;28;20437;-61
2022/06/15 01:09:09;;;;;;;7.88;2.78;;;15.50;99.90;;;;;;5084431;28;20119;-64
2022/06/15 01:11:53;;;;;;;8.07;2.65;;;15.40;99.90;;;;;;5086849;28;20024;-63
2022/06/15 01:14:28;;;;;;;6.75;2.38;;;15.10;99.90;;;;;;5086701;28;20563;-64
2022/06/15 01:17:06;;;;;;;5.50;2.38;;;14.80;99.90;;;;;;5079330;28;20546;-63
2022/06/15 01:19:56;;;;;;;5.60;2.50;;;14.70;99.90;;;;;;5084188;28;20046;-64
2022/06/15 01:23:06;;;;;;;9.60;2.88;;;14.60;99.90;;;;;;5078472;28;20102;-64
2022/06/15 01:25:41;;;;;;;4.95;2.50;;;14.50;99.90;;;;;;5081927;28;21056;-63
2022/06/15 01:28:39;;;;;;;8.40;2.58;;;14.30;99.90;;;;;;5080737;28;20384;-62
2022/06/15 01:31:13;;;;;;;6.60;2.80;;;14.30;99.90;;;;;;5079724;28;20060;-64
2022/06/15 01:33:52;;;;;;;6.47;2.80;;;14.30;99.90;;;;;;5084785;28;20027;-62
2022/06/15 01:36:32;;;;;;;8.63;2.30;;;14.20;99.90;;;;;;5074205;28;20027;-61
2022/06/15 01:39:18;;;;;;;6.10;3.10;;;14.10;99.90;;;;;;5084801;28;20548;-62
2022/06/15 01:42:03;;;;;;;8.02;3.00;;;14.20;99.90;;;;;;5083047;28;20033;-63
2022/06/15 01:44:34;;;;;;;7.55;2.83;;;14.40;99.90;;;;;;5079268;28;20020;-64
2022/06/15 01:47:04;;;;;;;7.20;3.30;;;14.30;99.90;;;;;;5080991;28;20141;-61
2022/06/15 01:49:36;;;;;;;9.25;2.72;;;14.20;99.90;;;;;;5080638;28;20523;-63
2022/06/15 01:52:03;;;;;;;9.13;2.85;;;14.10;99.90;;;;;;5080528;28;20023;-63
2022/06/15 01:54:35;;;;;;;7.43;3.30;;;14.00;99.90;;;;;;5079716;28;20161;-63
2022/06/15 01:57:03;;;;;;;8.13;3.23;;;14.00;99.90;;;;;;5084891;28;20043;-64
2022/06/15 01:59:42;;;;;;;5.85;3.00;;;13.90;99.90;;;;;;5083373;28;20408;-64
2022/06/15 02:02:08;;;;;;;7.00;3.05;;;13.90;99.90;;;;;;5071651;28;20029;-64
2022/06/15 02:05:01;;;;;;;6.90;2.83;;;14.00;99.90;;;;;;5081216;28;20032;-64
2022/06/15 02:07:45;;;;;;;7.78;3.20;;;13.80;99.90;;;;;;5079954;28;20611;-63
2022/06/15 02:10:20;;;;;;;7.72;3.38;;;13.60;99.90;;;;;;5083296;28;20080;-63
2022/06/15 02:12:52;;;;;;;8.45;3.13;;;13.70;99.90;;;;;;5081202;28;20058;-61
2022/06/15 02:15:25;;;;;;;5.63;3.10;;;13.60;99.90;;;;;;5075721;28;20034;-63
2022/06/15 02:17:53;;;;;;;6.30;3.13;;;13.50;99.90;;;;;;5077776;28;20349;-64
2022/06/15 02:20:23;;;;;;;6.43;3.47;;;13.60;99.90;;;;;;5072898;28;20024;-63
2022/06/15 02:22:51;;;;;;;8.88;3.17;;;13.60;99.90;;;;;;5081883;28;20024;-63
2022/06/15 02:25:20;;;;;;;9.30;3.70;;;13.70;99.90;;;;;;5076701;28;20077;-64
2022/06/15 02:27:48;;;;;;;5.65;3.05;;;13.80;99.90;;;;;;5081142;28;20054;-62
2022/06/15 02:30:18;;;;;;;9.27;3.80;;;13.70;99.90;;;;;;5077024;28;20656;-60
2022/06/15 02:32:46;;;;;;;11.45;4.20;;;13.60;99.90;;;;;;5080267;28;20651;-62
2022/06/15 02:35:13;;;;;;;10.15;4.22;;;13.50;99.90;;;;;;5078531;28;20089;-61
2022/06/15 02:37:38;;;;;;;8.55;3.92;;;13.50;99.90;;;;;;5075691;28;20031;-62
2022/06/15 02:40:05;;;;;;;7.40;3.30;;;13.60;99.90;;;;;;5076766;28;20028;-63
2022/06/15 02:42:34;;;;;;;9.10;4.10;;;13.70;99.90;;;;;;5083725;28;20039;-64
2022/06/15 02:45:06;;;;;;;9.15;3.90;;;13.50;99.90;;;;;;5081482;28;20029;-64
2022/06/15 02:47:34;;;;;;;8.20;3.85;;;13.40;99.90;;;;;;5077769;28;20028;-64
2022/06/15 02:50:01;;;;;;;9.65;4.00;;;13.30;99.90;;;;;;5072687;28;20038;-64
2022/06/15 02:52:33;;;;;;;8.73;4.03;;;13.40;99.90;;;;;;5087295;28;20460;-62
2022/06/15 02:55:00;;;;;;;8.10;4.05;;;13.40;99.90;;;;;;5083503;28;20051;-64
2022/06/15 02:57:26;;;;;;;9.65;4.03;;;13.30;99.90;;;;;;5090295;28;20027;-63
2022/06/15 02:59:52;;;;;;;20.80;4.97;;;13.20;99.90;;;;;;5074159;28;20408;-61
2022/06/15 03:02:19;;;;;;;11.20;4.15;;;13.30;99.90;;;;;;5076968;28;20044;-61
2022/06/15 03:04:46;;;;;;;10.20;4.20;;;13.10;99.90;;;;;;5079881;28;20038;-61
2022/06/15 03:07:13;;;;;;;8.40;3.97;;;13.00;99.90;;;;;;5086349;28;20020;-64
2022/06/15 03:09:40;;;;;;;7.80;3.80;;;13.00;99.90;;;;;;5075804;28;20032;-61
2022/06/15 03:12:06;;;;;;;8.13;3.92;;;12.90;99.90;;;;;;5077346;28;20027;-62
2022/06/15 03:14:33;;;;;;;8.38;4.53;;;12.80;99.90;;;;;;5076337;28;20024;-63
2022/06/15 03:16:59;;;;;;;11.15;4.28;;;12.90;99.90;;;;;;5075493;28;20020;-62
2022/06/15 03:19:24;;;;;;;12.68;4.28;;;12.90;99.90;;;;;;5079415;28;20705;-61
2022/06/15 03:21:50;;;;;;;9.02;4.28;;;12.90;99.90;;;;;;5077050;28;20036;-61
2022/06/15 03:24:16;;;;;;;6.28;3.78;;;12.90;99.90;;;;;;5076450;28;20028;-63
2022/06/15 03:26:41;;;;;;;10.68;4.57;;;12.90;99.90;;;;;;5080098;28;20039;-64
2022/06/15 03:29:07;;;;;;;7.07;4.28;;;13.00;99.90;;;;;;5074260;28;20047;-63
2022/06/15 03:31:33;;;;;;;10.32;5.03;;;12.80;99.90;;;;;;5074729;28;20626;-64
2022/06/15 03:33:59;;;;;;;12.23;4.53;;;12.60;99.90;;;;;;5081188;28;20044;-63
2022/06/15 03:36:25;;;;;;;9.38;4.68;;;12.70;99.90;;;;;;5076006;28;20051;-62
2022/06/15 03:38:51;;;;;;;9.15;4.45;;;12.80;99.90;;;;;;5074149;28;20048;-64
2022/06/15 03:41:18;;;;;;;9.75;4.28;;;12.80;99.90;;;;;;5082052;28;20027;-63
2022/06/15 03:43:44;;;;;;;12.13;5.05;;;13.00;99.90;;;;;;5079239;28;20085;-63
2022/06/15 03:46:11;;;;;;;11.23;5.07;;;13.00;99.90;;;;;;5078144;28;20033;-62
2022/06/15 03:48:37;;;;;;;10.90;4.53;;;12.70;99.90;;;;;;5080750;28;20023;-62
2022/06/15 03:51:03;;;;;;;8.00;4.22;;;12.90;99.90;;;;;;5080656;28;20053;-61
2022/06/15 03:53:29;;;;;;;11.77;4.80;;;12.90;99.90;;;;;;5080873;28;20021;-63
2022/06/15 03:55:54;;;;;;;11.63;5.47;;;12.90;99.90;;;;;;5079105;28;20103;-63
2022/06/15 03:58:20;;;;;;;10.05;5.10;;;13.10;99.90;;;;;;5075209;28;20185;-60
2022/06/15 04:00:46;;;;;;;13.38;5.32;;;13.40;99.90;;;;;;5078835;28;20039;-63
2022/06/15 04:03:12;;;;;;;10.10;4.90;;;13.30;99.90;;;;;;5076959;28;20035;-63
2022/06/15 04:05:49;;;;;;;11.40;5.28;;;13.20;99.90;;;;;;5077284;28;20039;-62
2022/06/15 04:08:37;;;;;;;9.77;5.60;;;13.30;99.90;;;;;;5078556;28;20472;-64
2022/06/15 04:11:09;;;;;;;11.02;5.30;;;13.60;99.90;;;;;;5075575;28;20032;-63
2022/06/15 04:13:36;;;;;;;13.65;5.80;;;13.70;99.90;;;;;;5072693;28;20082;-64
2022/06/15 04:16:05;;;;;;;10.90;5.13;;;13.70;99.90;;;;;;5078122;28;20435;-62
2022/06/15 04:18:30;;;;;;;15.80;5.18;;;13.70;99.90;;;;;;5081215;28;20034;-63
2022/06/15 04:20:56;;;;;;;12.18;5.18;;;13.80;99.90;;;;;;5074779;28;20024;-62
2022/06/15 04:23:22;;;;;;;9.68;5.25;;;13.90;99.90;;;;;;5075914;28;20111;-62
2022/06/15 04:25:52;;;;;;;15.35;5.32;;;14.00;99.90;;;;;;5073246;28;20032;-63
2022/06/15 04:28:21;;;;;;;8.13;5.20;;;14.00;99.90;;;;;;5075991;28;20441;-62
2022/06/15 04:30:47;;;;;;;11.20;4.75;;;14.00;99.90;;;;;;5081297;28;20032;-63
2022/06/15 04:33:14;;;;;;;15.65;5.28;;;13.90;99.90;;;;;;5070552;28;20395;-63
2022/06/15 04:35:40;;;;;;;14.20;6.15;;;14.00;99.90;;;;;;5077412;28;20032;-61
2022/06/15 04:38:10;;;;;;;10.57;5.20;;;13.90;99.90;;;;;;5082476;28;20085;-62
2022/06/15 04:40:37;;;;;;;10.95;5.22;;;14.00;99.90;;;;;;5073722;28;20028;-63
2022/06/15 04:43:04;;;;;;;10.50;5.45;;;14.10;99.90;;;;;;5075179;28;20020;-62
2022/06/15 04:45:30;;;;;;;10.80;5.55;;;14.20;99.90;;;;;;5069341;28;20085;-64
2022/06/15 04:47:55;;;;;;;12.60;6.18;;;14.20;99.90;;;;;;5079125;28;20032;-64
2022/06/15 04:50:21;;;;;;;12.73;5.50;;;14.20;99.90;;;;;;5072850;28;20084;-63
2022/06/15 04:52:47;;;;;;;10.70;5.53;;;14.30;99.90;;;;;;5073914;28;20084;-61
2022/06/15 04:55:16;;;;;;;13.30;6.53;;;14.50;99.90;;;;;;5070552;28;20388;-63
2022/06/15 04:57:42;;;;;;;12.32;5.80;;;14.50;99.90;;;;;;5070475;28;20059;-62
2022/06/15 05:00:11;;;;;;;13.52;5.80;;;14.60;99.90;;;;;;5081073;28;20471;-62
2022/06/15 05:02:37;;;;;;;12.68;6.32;;;14.60;99.90;;;;;;5084705;28;20508;-63
2022/06/15 05:05:03;;;;;;;19.15;6.68;;;14.70;99.90;;;;;;5078733;28;20028;-61
2022/06/15 05:07:29;;;;;;;14.30;6.50;;;14.80;99.90;;;;;;5081608;28;20054;-63
2022/06/15 05:09:56;;;;;;;13.45;6.55;;;15.00;99.90;;;;;;5079043;28;21295;-62
2022/06/15 05:12:22;;;;;;;14.32;7.25;;;15.00;99.90;;;;;;5076009;28;20024;-64
2022/06/15 05:14:48;;;;;;;17.60;6.72;;;15.10;99.90;;;;;;5079881;28;20487;-62
2022/06/15 05:17:19;;;;;;;15.93;6.53;;;15.20;99.90;;;;;;5078993;28;20093;-61
2022/06/15 05:19:45;;;;;;;19.45;6.97;;;15.20;99.90;;;;;;5075990;28;20509;-61
2022/06/15 05:22:11;;;;;;;12.52;6.72;;;15.20;99.90;;;;;;5086749;28;20028;-62
2022/06/15 05:24:37;;;;;;;17.33;6.72;;;15.20;99.90;;;;;;5082276;28;20035;-61
2022/06/15 05:27:03;;;;;;;14.35;6.60;;;15.40;99.90;;;;;;5084763;28;20085;-63
2022/06/15 05:29:29;;;;;;;14.00;6.63;;;15.40;99.90;;;;;;5080769;28;20097;-62
2022/06/15 05:31:55;;;;;;;14.43;6.53;;;15.30;99.90;;;;;;5084866;28;20458;-63
2022/06/15 05:34:21;;;;;;;14.98;6.53;;;15.40;99.90;;;;;;5076998;28;20035;-62
2022/06/15 05:36:47;;;;;;;17.33;6.43;;;15.60;99.90;;;;;;5077213;28;20084;-64
2022/06/15 05:39:13;;;;;;;15.45;6.25;;;15.80;99.90;;;;;;5081459;28;20109;-64
2022/06/15 05:41:39;;;;;;;13.10;6.75;;;15.90;99.90;;;;;;5089389;28;20028;-60
2022/06/15 05:44:15;;;;;;;14.60;6.53;;;15.80;99.90;;;;;;5078579;28;20692;-63
2022/06/15 05:46:42;;;;;;;14.73;6.30;;;15.80;99.90;;;;;;5078095;28;20081;-64
2022/06/15 05:49:10;;;;;;;16.15;6.93;;;16.10;99.90;;;;;;5077363;28;20103;-62
2022/06/15 05:51:36;;;;;;;13.55;6.72;;;16.20;99.90;;;;;;5072678;28;20510;-61
2022/06/15 05:54:01;;;;;;;13.65;7.20;;;16.10;99.90;;;;;;5079516;28;20024;-62
2022/06/15 05:56:27;;;;;;;14.60;7.00;;;16.10;99.90;;;;;;5074583;28;20020;-62
2022/06/15 05:58:53;;;;;;;17.35;6.60;;;16.00;99.90;;;;;;5081376;28;20129;-63
2022/06/15 06:01:23;;;;;;;14.93;6.35;;;16.30;99.90;;;;;;5080589;28;20570;-63
2022/06/15 06:03:49;;;;;;;15.05;5.80;;;16.50;99.90;;;;;;5084693;28;20479;-62
2022/06/15 06:06:14;;;;;;;15.45;6.28;;;16.40;99.90;;;;;;5080046;28;20030;-62
2022/06/15 06:08:40;;;;;;;10.70;5.10;;;16.50;99.90;;;;;;5082825;28;20035;-63
2022/06/15 06:11:05;;;;;;;11.30;5.13;;;16.60;99.90;;;;;;5089181;28;20025;-63
2022/06/15 06:13:31;;;;;;;16.55;5.43;;;16.80;99.90;;;;;;5090021;28;20095;-61
2022/06/15 06:15:57;;;;;;;13.65;5.65;;;16.70;99.90;;;;;;5070268;28;20081;-62
2022/06/15 06:18:23;;;;;;;12.75;5.70;;;16.60;99.90;;;;;;5079080;28;20028;-63
2022/06/15 06:20:49;;;;;;;18.45;5.20;;;16.70;99.90;;;;;;5074703;28;20043;-63
2022/06/15 06:23:15;;;;;;;21.42;12.35;;;17.00;99.90;;;;;;5075464;28;20146;-64
2022/06/15 06:25:47;;;;;;;10.65;5.30;;;17.00;99.90;;;;;;5072102;28;20073;-62
2022/06/15 06:28:25;;;;;;;13.73;5.53;;;17.10;99.90;;;;;;5073861;28;20550;-64
2022/06/15 06:30:50;;;;;;;17.02;5.30;;;17.10;99.90;;;;;;5073075;28;20519;-63
2022/06/15 06:33:17;;;;;;;10.25;4.82;;;17.00;99.90;;;;;;5079909;28;20099;-62
2022/06/15 06:35:43;;;;;;;9.80;4.68;;;17.20;99.90;;;;;;5079055;28;20062;-61
2022/06/15 06:38:10;;;;;;;11.43;4.72;;;17.40;99.90;;;;;;5074374;28;20032;-63
2022/06/15 06:40:36;;;;;;;11.05;4.85;;;17.40;99.90;;;;;;5076036;28;20066;-63
2022/06/15 06:43:01;;;;;;;12.13;4.25;;;17.30;99.90;;;;;;5082076;28;20028;-62
2022/06/15 06:45:27;;;;;;;10.70;4.40;;;17.40;99.90;;;;;;5074883;28;20028;-63
2022/06/15 06:47:53;;;;;;;12.63;4.60;;;17.70;99.90;;;;;;5080536;28;20074;-63
2022/06/15 06:50:18;;;;;;;10.02;4.50;;;17.70;99.90;;;;;;5080372;28;20035;-64
2022/06/15 06:52:44;;;;;;;9.43;3.88;;;17.80;99.90;;;;;;5078720;28;20063;-64
2022/06/15 06:55:10;;;;;;;12.82;4.57;;;18.00;99.90;;;;;;5078785;28;20024;-64
2022/06/15 06:57:36;;;;;;;17.45;4.93;;;18.10;99.90;;;;;;5081183;28;20031;-61
2022/06/15 07:00:02;;;;;;;11.63;4.10;;;18.10;99.90;;;;;;5071758;28;20040;-63
2022/06/15 07:02:28;;;;;;;10.13;4.35;;;18.10;99.90;;;;;;5068218;28;20032;-63
2022/06/15 07:04:53;;;;;;;11.70;4.30;;;18.00;99.90;;;;;;5082678;28;20054;-62
2022/06/15 07:07:19;;;;;;;14.63;4.40;;;18.10;99.90;;;;;;5074593;28;20034;-63
2022/06/15 07:09:44;;;;;;;15.15;4.55;;;18.20;99.90;;;;;;5081279;28;20044;-63
2022/06/15 07:12:10;;;;;;;9.73;3.88;;;18.40;99.90;;;;;;5075838;28;20041;-62
2022/06/15 07:14:36;;;;;;;14.77;4.18;;;18.40;99.90;;;;;;5079381;28;20093;-63
2022/06/15 07:17:01;;;;;;;9.45;4.07;;;18.60;99.90;;;;;;5082284;28;20032;-62
2022/06/15 07:19:27;;;;;;;11.07;3.80;;;18.80;99.90;;;;;;5081447;28;20039;-64
2022/06/15 07:21:53;;;;;;;14.23;3.90;;;18.90;99.90;;;;;;5076819;28;20118;-62
2022/06/15 07:24:18;;;;;;;7.35;3.45;;;19.20;99.90;;;;;;5082457;28;20039;-62
2022/06/15 07:26:47;;;;;;;9.95;3.83;;;19.30;99.90;;;;;;5079233;28;20040;-63
2022/06/15 07:29:16;;;;;;;14.02;3.85;;;19.40;99.90;;;;;;5081222;27;20518;-63
2022/06/15 07:31:47;;;;;;;9.95;3.75;;;19.40;99.90;;;;;;5083900;28;20047;-64
2022/06/15 07:34:13;;;;;;;8.15;3.70;;;19.40;99.90;;;;;;5079117;28;20020;-62
2022/06/15 07:36:46;;;;;;;11.77;3.95;;;19.30;99.90;;;;;;5078492;28;20117;-62
2022/06/15 07:39:17;;;;;;;10.13;3.77;;;19.30;99.90;;;;;;5080557;28;20027;-64
2022/06/15 07:41:43;;;;;;;9.82;3.60;;;19.30;99.90;;;;;;5080957;28;20746;-63
2022/06/15 07:44:08;;;;;;;12.95;4.22;;;19.60;99.90;;;;;;5076269;28;20600;-63
2022/06/15 07:46:34;;;;;;;9.88;3.75;;;19.90;99.90;;;;;;5078527;28;20040;-61
2022/06/15 07:51:56;;;;;;;12.95;4.90;;;19.70;99.90;;;;;;5073221;28;20043;-63
2022/06/15 07:54:22;;;;;;;13.48;3.95;;;19.60;99.90;;;;;;5084982;28;20092;-63
2022/06/15 07:56:49;;;;;;;37.40;23.38;;;19.80;99.90;;;;;;5071097;28;20111;-63
2022/06/15 07:59:15;;;;;;;10.82;3.53;;;19.90;99.90;;;;;;5075228;28;20470;-63
2022/06/15 08:01:41;;;;;;;12.57;3.58;;;19.90;99.90;;;;;;5078125;28;20028;-63
2022/06/15 08:04:07;;;;;;;12.35;4.07;;;19.80;99.90;;;;;;5076544;28;20032;-63
2022/06/15 08:06:35;;;;;;;11.77;3.75;;;20.00;99.90;;;;;;5079236;28;20067;-63
2022/06/15 08:09:01;;;;;;;12.80;3.40;;;20.10;99.90;;;;;;5075441;28;21738;-62
2022/06/15 08:11:28;;;;;;;8.27;3.00;;;20.20;99.90;;;;;;5081517;28;20103;-62
2022/06/15 08:13:55;;;;;;;10.05;3.15;;;20.40;99.90;;;;;;5074880;28;20399;-62
2022/06/15 08:16:21;;;;;;;10.45;3.03;;;20.30;99.90;;;;;;5075967;28;20539;-64
2022/06/15 08:18:53;;;;;;;11.52;3.00;;;20.50;99.90;;;;;;5080930;28;20032;-62
2022/06/15 08:21:31;;;;;;;10.02;3.30;;;20.50;99.90;;;;;;5070122;28;20040;-64
2022/06/15 08:23:59;;;;;;;7.60;3.17;;;20.80;99.90;;;;;;5083112;28;20078;-62
2022/06/15 08:26:34;;;;;;;11.00;3.55;;;20.90;99.90;;;;;;5074897;28;20043;-63
2022/06/15 08:29:04;;;;;;;9.32;3.30;;;21.20;99.90;;;;;;5084283;28;20059;-63
2022/06/15 08:31:29;;;;;;;11.27;3.13;;;21.00;99.90;;;;;;5082313;28;20015;-63
2022/06/15 08:33:55;;;;;;;11.18;3.70;;;21.00;99.90;;;;;;5081161;28;20043;-63
2022/06/15 08:36:21;;;;;;;9.85;3.25;;;20.80;99.90;;;;;;5077619;28;20020;-64
2022/06/15 08:38:47;;;;;;;8.65;2.92;;;20.80;99.90;;;;;;5082240;28;20032;-62
2022/06/15 08:41:40;;;;;;;8.88;3.35;;;21.10;99.90;;;;;;5079207;28;20103;-63
2022/06/15 08:44:44;;;;;;;12.05;3.47;;;21.20;99.90;;;;;;5075204;28;20794;-63
2022/06/15 08:47:31;;;;;;;15.02;3.13;;;21.30;99.90;;;;;;5079953;28;20028;-62
2022/06/15 08:50:08;;;;;;;13.57;3.33;;;21.40;99.90;;;;;;5082361;28;20031;-61
2022/06/15 08:52:42;;;;;;;11.35;3.00;;;21.20;99.90;;;;;;5083295;28;20024;-64
2022/06/15 08:55:28;;;;;;;10.35;2.97;;;21.20;99.90;;;;;;5076198;28;20077;-62
2022/06/15 08:57:58;;;;;;;10.68;2.80;;;21.50;99.90;;;;;;5082993;28;20408;-63
2022/06/15 09:00:37;;;;;;;7.43;2.55;;;21.30;99.90;;;;;;5080027;28;20549;-63
2022/06/15 09:03:18;;;;;;;8.02;3.08;;;21.40;99.90;;;;;;5080140;28;20085;-62
2022/06/15 09:06:07;;;;;;;12.25;7.07;;;21.30;99.90;;;;;;5084435;28;20028;-63
2022/06/15 09:08:53;;;;;;;9.27;2.70;;;21.70;99.90;;;;;;5074300;28;20463;-62
2022/06/15 09:11:43;;;;;;;11.80;3.13;;;21.90;99.90;;;;;;5078922;28;20081;-64
2022/06/15 09:14:25;;;;;;;10.10;3.35;;;21.80;99.90;;;;;;5079523;28;20024;-62
2022/06/15 09:17:07;;;;;;;13.15;2.80;;;21.60;99.90;;;;;;5080584;28;20063;-62
2022/06/15 09:19:37;;;;;;;9.55;2.85;;;21.70;99.90;;;;;;5084293;28;20115;-62
2022/06/15 09:22:07;;;;;;;10.63;3.30;;;22.10;99.90;;;;;;5080277;28;20859;-64
2022/06/15 09:24:52;;;;;;;11.73;3.53;;;22.20;99.90;;;;;;5080697;28;20073;-63
2022/06/15 09:27:23;;;;;;;11.90;3.10;;;22.00;99.90;;;;;;5084023;28;20420;-63
2022/06/15 09:30:04;;;;;;;8.38;3.30;;;22.30;99.90;;;;;;5081816;28;20388;-62
2022/06/15 09:32:42;;;;;;;10.50;3.60;;;22.30;99.90;;;;;;5081365;28;20027;-64
2022/06/15 09:35:16;;;;;;;10.27;3.42;;;22.30;99.90;;;;;;5080088;28;20040;-64
2022/06/15 09:37:45;;;;;;;9.15;3.00;;;22.40;99.90;;;;;;5080734;28;20028;-63
2022/06/15 09:40:12;;;;;;;13.18;3.72;;;22.60;99.90;;;;;;5083390;28;20130;-64
2022/06/15 09:43:19;;;;;;;12.98;4.65;;;22.70;99.90;;;;;;5083716;28;20032;-64
2022/06/15 09:46:04;;;;;;;10.75;4.07;;;22.60;99.90;;;;;;5074792;28;20492;-62
2022/06/15 09:49:09;;;;;;;10.48;4.40;;;22.40;99.90;;;;;;5080832;28;20032;-63
2022/06/15 09:51:50;;;;;;;9.48;4.40;;;22.60;99.90;;;;;;5058692;28;20554;-63
2022/06/15 09:54:32;;;;;;;12.35;4.60;;;22.60;99.90;;;;;;5079029;28;20116;-63
2022/06/15 09:56:57;;;;;;;11.73;3.50;;;22.60;99.90;;;;;;5080046;28;20088;-64
2022/06/15 09:59:24;;;;;;;16.10;4.43;;;23.00;99.90;;;;;;5077713;28;20013;-63
2022/06/15 10:01:50;;;;;;;11.10;3.90;;;22.90;99.90;;;;;;5077845;28;20068;-64
2022/06/15 10:04:20;;;;;;;15.93;4.80;;;22.80;99.90;;;;;;5076058;28;20538;-63
2022/06/15 10:06:51;;;;;;;12.85;4.45;;;22.90;99.90;;;;;;5079486;28;20032;-64
2022/06/15 10:09:26;;;;;;;11.73;3.78;;;22.80;99.90;;;;;;5074460;28;20221;-63
2022/06/15 10:11:55;;;;;;;15.88;3.85;;;23.00;99.90;;;;;;5081412;28;20115;-64
2022/06/15 10:14:31;;;;;;;15.57;4.80;;;23.20;99.90;;;;;;5078485;28;20028;-63
2022/06/15 10:17:17;;;;;;;15.02;3.85;;;22.90;99.90;;;;;;5077930;28;20656;-64
2022/06/15 10:19:47;;;;;;;9.20;3.60;;;22.90;99.90;;;;;;5079406;28;20028;-63
2022/06/15 10:22:26;;;;;;;11.02;3.50;;;23.00;99.90;;;;;;5080286;28;20096;-64
2022/06/15 10:24:53;;;;;;;9.57;3.28;;;23.20;99.90;;;;;;5078817;28;20522;-63
2022/06/15 10:27:25;;;;;;;10.13;3.28;;;23.20;99.90;;;;;;5082888;28;20066;-64
2022/06/15 10:30:04;;;;;;;13.57;4.07;;;23.30;99.90;;;;;;5077106;28;20032;-64
2022/06/15 10:32:31;;;;;;;15.00;3.67;;;23.30;99.90;;;;;;5080759;28;20496;-63
2022/06/15 10:35:02;;;;;;;13.68;3.83;;;23.20;99.90;;;;;;5081215;28;20028;-64
2022/06/15 10:37:35;;;;;;;12.10;3.70;;;23.20;99.90;;;;;;5077753;28;20020;-64
2022/06/15 10:40:06;;;;;;;9.02;3.28;;;23.20;99.90;;;;;;5078292;28;20024;-62
2022/06/15 10:42:34;;;;;;;9.90;3.60;;;23.50;99.90;;;;;;5082846;28;20419;-64
2022/06/15 10:45:03;;;;;;;9.57;3.70;;;23.50;99.90;;;;;;5077619;28;20034;-63
2022/06/15 10:47:49;;;;;;;11.57;3.38;;;23.60;99.90;;;;;;5077782;28;20036;-62
2022/06/15 10:50:29;;;;;;;17.17;4.13;;;23.60;99.90;;;;;;5078565;28;20545;-64
2022/06/15 10:53:00;;;;;;;10.50;3.53;;;23.60;99.90;;;;;;5077506;28;20063;-62
2022/06/15 11:04:19;;;;;;;8.90;3.80;;;23.80;99.90;;;;;;5074234;28;20212;-64
2022/06/15 11:07:07;;;;;;;6.72;3.00;;;23.80;99.90;;;;;;5078116;28;20028;-63
2022/06/15 11:09:41;;;;;;;6.70;3.08;;;23.90;99.90;;;;;;5080682;28;20020;-63
2022/06/15 11:12:33;;;;;;;10.30;3.03;;;23.80;99.90;;;;;;5081186;28;20081;-64
2022/06/15 11:15:07;;;;;;;12.98;3.28;;;23.80;99.90;;;;;;5081796;28;20025;-64
2022/06/15 11:20:45;;;;;;;8.80;3.70;;;24.00;99.90;;;;;;5073505;28;20514;-63
2022/06/15 11:23:29;;;;;;;13.25;3.80;;;23.90;99.90;;;;;;5084332;28;20382;-64
2022/06/15 11:26:52;;;;;;;12.15;3.70;;;24.00;99.90;;;;;;5078187;28;20135;-63
2022/06/15 11:28:55;;;;;;;8.55;3.20;;;24.10;99.90;;;;;;5081115;28;20051;-64
2022/06/15 11:31:22;;;;;;;12.32;3.38;;;24.20;99.90;;;;;;5085498;28;20054;-64
2022/06/15 11:33:59;;;;;;;15.45;3.40;;;24.30;99.90;;;;;;5079035;28;20484;-64
2022/06/15 11:36:34;;;;;;;10.38;3.38;;;24.40;99.90;;;;;;5077277;28;20101;-63
2022/06/15 11:39:09;;;;;;;10.90;3.50;;;24.40;99.90;;;;;;5077117;28;20512;-62
2022/06/15 11:41:44;;;;;;;9.02;3.42;;;24.30;99.90;;;;;;5081842;28;20066;-65
2022/06/15 11:44:19;;;;;;;11.50;4.30;;;24.40;99.90;;;;;;5082754;28;20487;-63
2022/06/15 11:47:03;;;;;;;10.60;4.15;;;24.30;99.90;;;;;;5074357;28;20036;-64
2022/06/15 11:49:56;;;;;;;17.85;4.35;;;24.20;99.90;;;;;;5074664;28;20587;-65
2022/06/15 11:52:22;;;;;;;9.20;4.10;;;24.00;99.90;;;;;;5077225;28;20028;-63
2022/06/15 11:55:01;;;;;;;13.77;4.28;;;24.30;99.90;;;;;;5079602;28;20739;-64
2022/06/15 11:57:33;;;;;;;9.20;3.78;;;24.20;99.90;;;;;;5079941;28;20422;-65
2022/06/15 12:00:41;;;;;;;12.77;4.93;;;24.20;99.90;;;;;;5076576;28;20028;-63
2022/06/15 12:03:21;;;;;;;14.35;4.53;;;24.40;99.90;;;;;;5062429;28;20514;-64
2022/06/15 12:05:56;;;;;;;9.93;4.55;;;24.40;99.90;;;;;;5073323;28;20032;-64
2022/06/15 12:08:54;;;;;;;11.25;4.97;;;24.50;99.90;;;;;;5077844;28;20111;-64
2022/06/15 12:14:41;;;;;;;8.82;3.97;;;24.30;99.90;;;;;;5090094;28;20089;-64
2022/06/15 12:17:32;;;;;;;9.02;3.38;;;24.40;99.90;;;;;;5082942;28;20717;-65
2022/06/15 12:20:04;;;;;;;8.32;3.10;;;24.30;99.90;;;;;;5081523;28;20028;-63
2022/06/15 12:22:37;;;;;;;12.20;4.70;;;24.60;99.90;;;;;;5074595;28;20032;-63
2022/06/15 12:25:33;;;;;;;8.88;4.55;;;24.60;99.90;;;;;;5087356;28;20020;-64
2022/06/15 12:28:07;;;;;;;10.82;4.35;;;24.90;99.90;;;;;;5075020;28;20024;-64
2022/06/15 12:30:45;;;;;;;12.73;4.00;;;24.80;99.90;;;;;;5081180;28;20028;-64
2022/06/15 12:33:39;;;;;;;7.88;3.75;;;24.80;99.90;;;;;;5080459;28;20098;-63
2022/06/15 12:36:07;;;;;;;13.57;4.25;;;24.70;99.90;;;;;;5076702;28;20024;-64
2022/06/15 12:38:52;;;;;;;9.27;4.22;;;24.70;99.90;;;;;;5082373;28;20119;-63
2022/06/15 12:44:23;;;;;;;10.07;3.85;;;25.20;99.90;;;;;;5081754;28;20092;-63
2022/06/15 12:46:51;;;;;;;10.32;4.43;;;25.40;99.90;;;;;;5076793;28;20047;-65
2022/06/15 12:49:42;;;;;;;7.95;3.75;;;24.90;99.90;;;;;;5085309;28;20020;-63
2022/06/15 12:52:19;;;;;;;9.13;3.85;;;24.90;99.90;;;;;;5075315;28;20408;-62
2022/06/15 12:54:59;;;;;;;6.28;3.35;;;25.00;99.90;;;;;;5083890;28;20034;-65
2022/06/15 12:57:52;;;;;;;8.93;3.97;;;25.10;99.90;;;;;;5086025;28;20042;-64
2022/06/15 13:00:27;;;;;;;13.13;3.80;;;24.80;99.90;;;;;;5083046;28;20024;-64
2022/06/15 13:03:31;;;;;;;7.53;3.28;;;24.90;99.90;;;;;;5081175;28;20497;-65
2022/06/15 13:06:21;;;;;;;9.85;2.83;;;24.90;99.90;;;;;;5081364;28;20039;-64
2022/06/15 13:09:09;;;;;;;9.68;3.25;;;25.00;99.90;;;;;;5078632;28;20035;-64
2022/06/15 13:11:46;;;;;;;9.95;3.05;;;25.10;99.90;;;;;;5080632;28;20059;-63
2022/06/15 13:14:19;;;;;;;6.82;2.83;;;25.10;99.90;;;;;;5081967;28;20024;-64
2022/06/15 13:17:03;;;;;;;11.40;2.85;;;25.20;99.90;;;;;;5077806;28;20047;-62
2022/06/15 13:19:36;;;;;;;7.18;2.92;;;25.10;99.90;;;;;;5078335;28;20043;-64
2022/06/15 13:22:23;;;;;;;6.32;2.50;;;25.20;99.90;;;;;;5071559;28;20108;-64
2022/06/15 13:24:53;;;;;;;6.35;2.70;;;25.30;99.90;;;;;;5084390;28;20145;-64